createdAt,value
2023-01-26T00:05:10.921Z,0.70
2023-01-26T00:11:14.151Z,0.70
2023-01-26T00:17:17.283Z,0.60
2023-01-26T00:23:19.639Z,0.60
2023-01-26T00:29:21.914Z,0.50
2023-01-26T00:35:24.893Z,0.50
2023-01-26T00:41:45.695Z,0.60
2023-01-26T00:47:47.811Z,0.50
2023-01-26T00:53:50.093Z,0.60
2023-01-26T00:59:52.221Z,0.60
2023-01-26T01:05:54.397Z,0.60
2023-01-26T01:11:56.780Z,0.60
2023-01-26T01:17:59.199Z,0.60
2023-01-26T01:24:01.747Z,0.60
2023-01-26T01:30:08.229Z,0.50
2023-01-26T01:36:15.542Z,0.40
2023-01-26T01:42:26.020Z,0.40
2023-01-26T01:48:30.628Z,0.50
2023-01-26T01:54:51.086Z,0.40
2023-01-26T02:00:53.969Z,0.30
2023-01-26T02:06:59.236Z,0.40
2023-01-26T02:13:02.823Z,0.40
2023-01-26T02:19:05.180Z,0.40
2023-01-26T02:25:40.358Z,0.40
2023-01-26T02:31:43.669Z,0.40
2023-01-26T02:37:45.964Z,0.40
2023-01-26T02:43:48.415Z,0.40
2023-01-26T02:49:51.302Z,0.40
2023-01-26T02:55:55.132Z,0.40
2023-01-26T03:01:58.550Z,0.40
2023-01-26T03:08:01.463Z,0.50
2023-01-26T03:14:10.990Z,0.50
2023-01-26T03:20:32.423Z,0.60
2023-01-26T03:26:54.020Z,0.50
2023-01-26T03:32:56.896Z,0.50
2023-01-26T03:38:59.289Z,0.60
2023-01-26T03:45:20.058Z,0.60
2023-01-26T03:51:42.724Z,0.50
2023-01-26T03:57:45.140Z,0.50
2023-01-26T04:04:08.185Z,0.60
2023-01-26T04:10:11.090Z,0.60
2023-01-26T04:16:32.716Z,0.60
2023-01-26T04:22:42.631Z,0.70
2023-01-26T04:28:45.063Z,0.60
2023-01-26T04:34:47.428Z,0.60
2023-01-26T04:40:56.785Z,0.60
2023-01-26T04:46:59.578Z,0.60
2023-01-26T04:53:03.684Z,0.60
2023-01-26T04:59:08.545Z,0.60
2023-01-26T05:05:13.014Z,0.60
2023-01-26T05:11:15.351Z,0.60
2023-01-26T05:17:40.792Z,0.60
2023-01-26T05:24:06.054Z,0.60
2023-01-26T05:30:23.223Z,0.60
2023-01-26T05:36:26.835Z,0.70
2023-01-26T05:42:29.298Z,0.80
2023-01-26T05:48:42.450Z,0.70
2023-01-26T05:54:45.431Z,0.70
2023-01-26T06:00:47.583Z,0.70
2023-01-26T06:06:59.158Z,0.80
2023-01-26T06:13:13.510Z,0.80
2023-01-26T06:19:36.878Z,0.80
2023-01-26T06:25:42.542Z,0.80
2023-01-26T06:31:45.194Z,0.80
2023-01-26T06:37:50.477Z,0.90
2023-01-26T06:43:53.815Z,0.90
2023-01-26T06:49:56.372Z,1.10
2023-01-26T06:55:58.808Z,1.10
2023-01-26T07:02:21.679Z,1.00
2023-01-26T07:08:23.940Z,1.00
2023-01-26T07:14:26.192Z,1.00
2023-01-26T07:20:28.796Z,1.00
2023-01-26T07:26:31.163Z,1.00
2023-01-26T07:32:33.335Z,0.90
2023-01-26T07:38:35.595Z,0.80
2023-01-26T07:44:37.893Z,0.70
2023-01-26T07:50:40.106Z,0.80
2023-01-26T07:56:42.276Z,0.80
2023-01-26T08:02:44.830Z,0.80
2023-01-26T08:08:51.727Z,0.90
2023-01-26T08:14:53.959Z,0.90
2023-01-26T08:20:56.311Z,0.90
2023-01-26T08:26:58.391Z,0.90
2023-01-26T08:33:00.763Z,0.90
2023-01-26T08:39:03.125Z,0.90
2023-01-26T08:45:05.540Z,1.00
2023-01-26T08:51:08.242Z,0.90
2023-01-26T08:57:10.398Z,1.00
2023-01-26T09:03:12.828Z,1.00
2023-01-26T09:09:14.862Z,1.20
2023-01-26T09:15:17.187Z,1.30
2023-01-26T09:21:19.989Z,1.40
2023-01-26T09:27:22.242Z,1.50
2023-01-26T09:33:25.822Z,1.60
2023-01-26T09:39:28.028Z,1.60
2023-01-26T09:45:39.198Z,1.50
2023-01-26T09:52:00.357Z,1.60
2023-01-26T09:58:14.634Z,1.60
2023-01-26T10:04:34.248Z,1.50
2023-01-26T10:10:41.966Z,1.50
2023-01-26T10:16:47.070Z,1.60
2023-01-26T10:22:53.001Z,1.60
2023-01-26T10:28:55.482Z,1.50
2023-01-26T10:34:57.661Z,1.40
2023-01-26T10:41:05.141Z,1.50
2023-01-26T10:47:18.214Z,1.50
2023-01-26T10:53:30.936Z,1.50
2023-01-26T10:59:41.193Z,1.70
2023-01-26T11:05:45.189Z,1.80
2023-01-26T11:12:01.465Z,1.70
2023-01-26T11:18:43.143Z,1.90
2023-01-26T11:25:02.231Z,2.00
2023-01-26T11:31:31.678Z,2.10
2023-01-26T11:37:39.948Z,2.20
2023-01-26T11:44:26.031Z,2.10
2023-01-26T11:50:44.283Z,2.20
2023-01-26T11:56:51.882Z,2.30
2023-01-26T12:03:05.120Z,2.30
2023-01-26T12:09:33.317Z,2.20
2023-01-26T12:15:38.842Z,2.20
2023-01-26T12:21:45.593Z,2.20
2023-01-26T12:28:08.714Z,2.10
2023-01-26T12:34:13.916Z,2.20
2023-01-26T12:40:25.192Z,2.20
2023-01-26T12:46:31.653Z,2.20
2023-01-26T12:52:49.205Z,2.20
2023-01-26T12:58:54.164Z,2.30
2023-01-26T13:04:59.475Z,2.20
2023-01-26T13:11:09.419Z,2.10
2023-01-26T13:17:18.040Z,2.20
2023-01-26T13:23:29.310Z,2.10
2023-01-26T13:29:33.444Z,2.20
2023-01-26T13:35:35.958Z,2.10
2023-01-26T13:41:45.687Z,2.20
2023-01-26T13:47:51.294Z,2.20
2023-01-26T13:54:06.780Z,2.20
2023-01-26T14:00:12.159Z,2.20
2023-01-26T14:06:23.055Z,2.20
2023-01-26T14:12:33.856Z,2.10
2023-01-26T14:18:36.406Z,2.10
2023-01-26T14:24:41.424Z,2.10
2023-01-26T14:30:44.318Z,2.10
2023-01-26T14:36:46.563Z,2.00
2023-01-26T14:42:53.906Z,1.90
2023-01-26T14:49:13.059Z,1.80
2023-01-26T14:55:30.070Z,1.80
2023-01-26T15:01:33.065Z,1.70
2023-01-26T15:07:43.446Z,1.70
2023-01-26T15:13:48.597Z,1.70
2023-01-26T15:19:53.555Z,1.70
2023-01-26T15:25:56.376Z,1.80
2023-01-26T15:31:59.312Z,1.70
2023-01-26T15:38:13.101Z,1.80
2023-01-26T15:44:20.122Z,1.80
2023-01-26T15:50:28.213Z,1.90
2023-01-26T15:56:31.317Z,2.00
2023-01-26T16:02:33.472Z,2.10
2023-01-26T16:08:35.759Z,2.10
2023-01-26T16:14:37.792Z,2.20
2023-01-26T16:20:42.180Z,2.30
2023-01-26T16:26:44.309Z,2.30
2023-01-26T16:32:49.719Z,2.40
2023-01-26T16:38:52.122Z,2.50
2023-01-26T16:44:54.566Z,2.50
2023-01-26T16:50:56.750Z,2.60
2023-01-26T16:56:59.011Z,2.60
2023-01-26T17:03:01.523Z,2.80
2023-01-26T17:09:04.324Z,2.80
2023-01-26T17:15:08.031Z,2.80
2023-01-26T17:21:10.413Z,2.80
2023-01-26T17:27:12.845Z,2.80
2023-01-26T17:33:15.067Z,2.80
2023-01-26T17:39:19.076Z,2.80
2023-01-26T17:45:21.263Z,2.80
2023-01-26T17:51:23.822Z,2.80
2023-01-26T17:57:25.922Z,2.80
2023-01-26T18:03:28.632Z,2.80
2023-01-26T18:09:30.837Z,2.80
2023-01-26T18:15:36.179Z,2.80
2023-01-26T18:21:38.673Z,2.80
2023-01-26T18:27:41.169Z,2.70
2023-01-26T18:33:43.243Z,2.80
2023-01-26T18:39:45.529Z,2.80
2023-01-26T18:45:47.824Z,2.80
2023-01-26T18:51:51.111Z,2.80
2023-01-26T18:57:55.388Z,2.80
2023-01-26T19:03:59.152Z,2.80
2023-01-26T19:10:01.284Z,2.80
2023-01-26T19:16:03.750Z,2.80
2023-01-26T19:22:06.333Z,2.90
2023-01-26T19:28:08.811Z,2.90
2023-01-26T19:34:13.621Z,2.90
2023-01-26T19:40:15.998Z,2.90
2023-01-26T19:46:19.195Z,2.90
2023-01-26T20:45:01.520Z,2.70
2023-01-26T20:51:16.528Z,2.60
2023-01-26T20:57:19.367Z,2.70
2023-01-26T21:03:21.690Z,2.60
2023-01-26T21:09:24.106Z,2.60
2023-01-26T21:15:26.301Z,2.60
2023-01-26T21:21:28.564Z,2.40
2023-01-26T21:27:30.652Z,2.40
2023-01-26T21:33:36.038Z,2.40
2023-01-26T21:39:38.267Z,2.40
2023-01-26T21:45:56.477Z,2.30
2023-01-26T21:52:17.560Z,2.30
2023-01-26T21:58:38.251Z,2.30
2023-01-26T22:04:40.677Z,2.30
2023-01-26T22:10:42.725Z,2.20
2023-01-26T22:16:45.182Z,2.20
2023-01-26T22:22:47.292Z,2.20
2023-01-26T22:28:57.243Z,2.10
2023-01-26T22:34:59.517Z,2.10
2023-01-26T22:41:03.283Z,2.00
2023-01-26T22:47:05.687Z,2.00
2023-01-26T22:53:08.087Z,2.00
2023-01-26T22:59:10.303Z,1.90
2023-01-26T23:05:12.586Z,1.70
2023-01-26T23:11:18.704Z,1.60
2023-01-26T23:17:20.983Z,1.50
2023-01-26T23:23:23.172Z,1.40
2023-01-26T23:29:25.530Z,1.30
2023-01-26T23:35:27.564Z,1.30
2023-01-26T23:41:30.493Z,1.20
2023-01-26T23:47:32.896Z,1.10
2023-01-26T23:53:35.876Z,1.00
2023-01-26T23:59:38.013Z,1.00
